sensor_id;sensor_type;location;lat;lon;timestamp;pressure;altitude;pressure_sealevel;temperature;humidity
49943;BME280;36011;53.362;58.948;2023-03-03T00:01:36;95382.94;;;-12.29;63.58
49943;BME280;36011;53.362;58.948;2023-03-03T00:04:37;95380.44;;;-12.19;63.24
49943;BME280;36011;53.362;58.948;2023-03-03T00:07:39;95376.19;;;-12.17;62.89
49943;BME280;36011;53.362;58.948;2023-03-03T00:10:40;95381.28;;;-12.11;63.26
49943;BME280;36011;53.362;58.948;2023-03-03T00:13:50;95382.06;;;-12.00;63.34
49943;BME280;36011;53.362;58.948;2023-03-03T00:16:51;95382.94;;;-12.01;62.98
49943;BME280;36011;53.362;58.948;2023-03-03T00:19:53;95371.91;;;-11.89;63.53
49943;BME280;36011;53.362;58.948;2023-03-03T00:22:56;95385.47;;;-12.06;63.60
49943;BME280;36011;53.362;58.948;2023-03-03T00:26:00;95389.69;;;-11.97;63.96
49943;BME280;36011;53.362;58.948;2023-03-03T00:29:27;95389.69;;;-12.03;64.26
49943;BME280;36011;53.362;58.948;2023-03-03T00:32:37;95389.69;;;-12.00;63.63
49943;BME280;36011;53.362;58.948;2023-03-03T00:35:42;95383.75;;;-12.01;64.49
49943;BME280;36011;53.362;58.948;2023-03-03T00:38:43;95389.69;;;-11.91;64.39
49943;BME280;36011;53.362;58.948;2023-03-03T00:41:44;95385.41;;;-11.84;64.14
49943;BME280;36011;53.362;58.948;2023-03-03T00:47:48;95383.78;;;-11.91;64.31
49943;BME280;36011;53.362;58.948;2023-03-03T00:50:51;95376.97;;;-11.86;64.42
49943;BME280;36011;53.362;58.948;2023-03-03T00:53:53;95381.22;;;-11.93;64.21
49943;BME280;36011;53.362;58.948;2023-03-03T00:56:55;95371.94;;;-12.02;64.38
49943;BME280;36011;53.362;58.948;2023-03-03T00:59:58;95371.03;;;-11.84;64.08
49943;BME280;36011;53.362;58.948;2023-03-03T01:03:03;95381.22;;;-11.90;64.69
49943;BME280;36011;53.362;58.948;2023-03-03T01:06:10;95379.50;;;-11.80;64.52
49943;BME280;36011;53.362;58.948;2023-03-03T01:09:15;95376.06;;;-11.78;64.69
49943;BME280;36011;53.362;58.948;2023-03-03T01:12:16;95381.16;;;-11.76;64.48
49943;BME280;36011;53.362;58.948;2023-03-03T01:15:20;95382.84;;;-11.70;64.21
49943;BME280;36011;53.362;58.948;2023-03-03T01:18:21;95390.47;;;-11.81;64.61
49943;BME280;36011;53.362;58.948;2023-03-03T01:21:27;95388.75;;;-11.78;64.30
49943;BME280;36011;53.362;58.948;2023-03-03T01:24:30;95386.25;;;-11.74;64.11
49943;BME280;36011;53.362;58.948;2023-03-03T01:27:35;95393.81;;;-11.70;64.46
49943;BME280;36011;53.362;58.948;2023-03-03T01:30:37;95387.06;;;-11.74;64.51
49943;BME280;36011;53.362;58.948;2023-03-03T01:33:38;95398.91;;;-11.73;64.51
49943;BME280;36011;53.362;58.948;2023-03-03T01:36:40;95395.50;;;-11.64;64.69
49943;BME280;36011;53.362;58.948;2023-03-03T01:39:48;95397.97;;;-11.43;64.43
49943;BME280;36011;53.362;58.948;2023-03-03T01:42:49;95386.97;;;-11.43;64.23
49943;BME280;36011;53.362;58.948;2023-03-03T01:46:20;95387.75;;;-11.31;64.65
49943;BME280;36011;53.362;58.948;2023-03-03T01:49:18;95396.13;;;-11.10;64.39
49943;BME280;36011;53.362;58.948;2023-03-03T01:52:26;95389.34;;;-11.05;64.16
49943;BME280;36011;53.362;58.948;2023-03-03T01:55:38;95383.38;;;-10.99;64.80
49943;BME280;36011;53.362;58.948;2023-03-03T01:58:59;95396.03;;;-10.89;64.63
49943;BME280;36011;53.362;58.948;2023-03-03T02:02:03;95405.28;;;-10.80;63.94
49943;BME280;36011;53.362;58.948;2023-03-03T02:05:07;95390.78;;;-10.67;63.19
49943;BME280;36011;53.362;58.948;2023-03-03T02:08:09;95407.78;;;-10.69;62.73
49943;BME280;36011;53.362;58.948;2023-03-03T02:11:16;95402.72;;;-10.78;62.31
49943;BME280;36011;53.362;58.948;2023-03-03T02:14:18;95424.03;;;-10.98;62.65
49943;BME280;36011;53.362;58.948;2023-03-03T02:17:23;95422.31;;;-10.94;63.10
49943;BME280;36011;53.362;58.948;2023-03-03T02:24:04;95436.53;;;-10.61;62.32
49943;BME280;36011;53.362;58.948;2023-03-03T02:27:11;95428.03;;;-10.57;61.64
49943;BME280;36011;53.362;58.948;2023-03-03T02:30:24;95434.81;;;-10.62;62.34
49943;BME280;36011;53.362;58.948;2023-03-03T02:33:26;95433.09;;;-10.57;62.24
49943;BME280;36011;53.362;58.948;2023-03-03T02:36:34;95443.28;;;-10.60;62.13
49943;BME280;36011;53.362;58.948;2023-03-03T02:39:35;95432.22;;;-10.50;61.93
49943;BME280;36011;53.362;58.948;2023-03-03T02:42:37;95438.84;;;-10.30;61.45
49943;BME280;36011;53.362;58.948;2023-03-03T02:45:42;95433.00;;;-10.45;61.92
49943;BME280;36011;53.362;58.948;2023-03-03T02:48:47;95422.94;;;-10.57;61.65
49943;BME280;36011;53.362;58.948;2023-03-03T02:51:54;95421.28;;;-10.67;61.84
49943;BME280;36011;53.362;58.948;2023-03-03T02:54:58;95428.13;;;-10.78;62.13
49943;BME280;36011;53.362;58.948;2023-03-03T02:58:02;95429.06;;;-10.93;62.84
49943;BME280;36011;53.362;58.948;2023-03-03T03:01:05;95438.38;;;-10.94;62.58
49943;BME280;36011;53.362;58.948;2023-03-03T03:04:15;95461.09;;;-10.63;62.35
49943;BME280;36011;53.362;58.948;2023-03-03T03:07:20;95444.13;;;-10.58;61.97
49943;BME280;36011;53.362;58.948;2023-03-03T03:10:25;95442.38;;;-10.48;62.00
49943;BME280;36011;53.362;58.948;2023-03-03T03:13:30;95460.19;;;-10.50;62.31
49943;BME280;36011;53.362;58.948;2023-03-03T03:16:34;95449.88;;;-10.31;61.80
49943;BME280;36011;53.362;58.948;2023-03-03T03:19:39;95442.31;;;-10.39;62.15
49943;BME280;36011;53.362;58.948;2023-03-03T03:22:44;95452.53;;;-10.47;62.34
49943;BME280;36011;53.362;58.948;2023-03-03T03:25:49;95452.44;;;-10.30;62.16
49943;BME280;36011;53.362;58.948;2023-03-03T03:28:53;95471.97;;;-10.35;62.03
49943;BME280;36011;53.362;58.948;2023-03-03T03:31:58;95476.16;;;-10.31;62.15
49943;BME280;36011;53.362;58.948;2023-03-03T03:35:03;95464.28;;;-10.29;62.31
49943;BME280;36011;53.362;58.948;2023-03-03T03:38:08;95479.41;;;-10.10;62.21
49943;BME280;36011;53.362;58.948;2023-03-03T03:41:13;95490.28;;;-9.95;61.97
49943;BME280;36011;53.362;58.948;2023-03-03T03:44:17;95485.25;;;-10.01;62.10
49943;BME280;36011;53.362;58.948;2023-03-03T03:47:22;95489.47;;;-9.98;62.28
49943;BME280;36011;53.362;58.948;2023-03-03T03:50:26;95507.28;;;-10.00;62.44
49943;BME280;36011;53.362;58.948;2023-03-03T03:53:30;95502.06;;;-9.81;62.04
49943;BME280;36011;53.362;58.948;2023-03-03T03:56:35;95510.53;;;-9.82;62.42
49943;BME280;36011;53.362;58.948;2023-03-03T03:59:41;95521.50;;;-9.73;62.23
49943;BME280;36011;53.362;58.948;2023-03-03T04:02:46;95523.09;;;-9.61;61.88
49943;BME280;36011;53.362;58.948;2023-03-03T04:05:52;95542.53;;;-9.49;61.55
49943;BME280;36011;53.362;58.948;2023-03-03T04:08:58;95544.25;;;-9.53;61.07
49943;BME280;36011;53.362;58.948;2023-03-03T04:12:03;95555.28;;;-9.51;60.97
49943;BME280;36011;53.362;58.948;2023-03-03T04:15:13;95561.09;;;-9.33;59.83
49943;BME280;36011;53.362;58.948;2023-03-03T04:18:18;95560.13;;;-9.21;58.79
49943;BME280;36011;53.362;58.948;2023-03-03T04:21:22;95558.44;;;-9.26;58.49
49943;BME280;36011;53.362;58.948;2023-03-03T04:24:45;95565.19;;;-9.17;58.03
49943;BME280;36011;53.362;58.948;2023-03-03T04:27:51;95558.22;;;-9.01;56.34
49943;BME280;36011;53.362;58.948;2023-03-03T04:30:56;95568.31;;;-8.90;55.62
49943;BME280;36011;53.362;58.948;2023-03-03T04:33:58;95587.75;;;-8.80;54.96
49943;BME280;36011;53.362;58.948;2023-03-03T04:37:02;95574.22;;;-8.85;54.73
49943;BME280;36011;53.362;58.948;2023-03-03T04:40:07;95576.59;;;-8.68;54.53
49943;BME280;36011;53.362;58.948;2023-03-03T04:43:12;95585.13;;;-8.74;53.76
49943;BME280;36011;53.362;58.948;2023-03-03T04:46:18;95583.41;;;-8.72;53.87
49943;BME280;36011;53.362;58.948;2023-03-03T04:49:21;95579.91;;;-8.62;53.38
49943;BME280;36011;53.362;58.948;2023-03-03T04:52:25;95593.44;;;-8.56;53.74
49943;BME280;36011;53.362;58.948;2023-03-03T04:55:31;95605.34;;;-8.57;53.21
49943;BME280;36011;53.362;58.948;2023-03-03T04:58:36;95595.94;;;-8.50;52.57
49943;BME280;36011;53.362;58.948;2023-03-03T05:01:41;95599.19;;;-8.39;52.86
49943;BME280;36011;53.362;58.948;2023-03-03T05:04:43;95603.97;;;-8.15;51.88
49943;BME280;36011;53.362;58.948;2023-03-03T05:07:49;95605.78;;;-8.23;51.97
49943;BME280;36011;53.362;58.948;2023-03-03T05:10:55;95612.38;;;-8.06;51.60
49943;BME280;36011;53.362;58.948;2023-03-03T05:13:59;95618.22;;;-7.98;51.72
49943;BME280;36011;53.362;58.948;2023-03-03T05:17:07;95617.25;;;-7.88;51.30
49943;BME280;36011;53.362;58.948;2023-03-03T05:20:14;95633.41;;;-7.87;51.29
49943;BME280;36011;53.362;58.948;2023-03-03T05:23:21;95627.97;;;-7.64;50.99
49943;BME280;36011;53.362;58.948;2023-03-03T05:26:24;95630.38;;;-7.52;51.04
49943;BME280;36011;53.362;58.948;2023-03-03T05:29:29;95632.88;;;-7.49;50.83
49943;BME280;36011;53.362;58.948;2023-03-03T05:32:34;95638.53;;;-7.29;50.48
49943;BME280;36011;53.362;58.948;2023-03-03T05:35:37;95644.06;;;-6.99;49.95
49943;BME280;36011;53.362;58.948;2023-03-03T05:38:42;95654.06;;;-6.88;49.78
49943;BME280;36011;53.362;58.948;2023-03-03T05:41:45;95650.00;;;-6.49;49.40
49943;BME280;36011;53.362;58.948;2023-03-03T05:44:49;95655.44;;;-6.19;48.31
49943;BME280;36011;53.362;58.948;2023-03-03T05:47:53;95652.69;;;-5.29;47.68
49943;BME280;36011;53.362;58.948;2023-03-03T05:50:58;95667.09;;;-1.25;42.47
49943;BME280;36011;53.362;58.948;2023-03-03T05:53:59;95673.94;;;3.08;36.40
49943;BME280;36011;53.362;58.948;2023-03-03T05:57:03;95657.00;;;6.30;31.81
49943;BME280;36011;53.362;58.948;2023-03-03T06:00:09;95657.38;;;8.09;29.48
49943;BME280;36011;53.362;58.948;2023-03-03T06:03:11;95664.44;;;7.61;27.82
49943;BME280;36011;53.362;58.948;2023-03-03T06:06:13;95654.88;;;7.49;27.64
49943;BME280;36011;53.362;58.948;2023-03-03T06:09:16;95666.13;;;7.86;28.28
49943;BME280;36011;53.362;58.948;2023-03-03T06:12:19;95655.84;;;8.07;27.17
49943;BME280;36011;53.362;58.948;2023-03-03T06:15:23;95657.53;;;7.84;26.48
49943;BME280;36011;53.362;58.948;2023-03-03T06:18:27;95664.13;;;8.25;26.19
49943;BME280;36011;53.362;58.948;2023-03-03T06:21:33;95676.53;;;8.34;25.04
49943;BME280;36011;53.362;58.948;2023-03-03T06:24:35;95677.84;;;8.97;24.88
49943;BME280;36011;53.362;58.948;2023-03-03T06:27:36;95681.41;;;9.30;24.44
49943;BME280;36011;53.362;58.948;2023-03-03T06:30:43;95676.41;;;9.38;24.03
49943;BME280;36011;53.362;58.948;2023-03-03T06:33:46;95677.88;;;9.75;23.49
49943;BME280;36011;53.362;58.948;2023-03-03T06:36:55;95682.78;;;9.68;22.94
49943;BME280;36011;53.362;58.948;2023-03-03T06:39:57;95688.56;;;9.06;23.54
49943;BME280;36011;53.362;58.948;2023-03-03T06:42:58;95696.88;;;8.66;23.86
49943;BME280;36011;53.362;58.948;2023-03-03T06:46:03;95694.38;;;8.29;23.46
49943;BME280;36011;53.362;58.948;2023-03-03T06:49:07;95707.28;;;7.84;23.67
49943;BME280;36011;53.362;58.948;2023-03-03T06:52:22;95714.91;;;7.63;24.18
49943;BME280;36011;53.362;58.948;2023-03-03T06:55:23;95723.59;;;7.63;24.62
49943;BME280;36011;53.362;58.948;2023-03-03T06:58:25;95727.97;;;7.39;24.34
49943;BME280;36011;53.362;58.948;2023-03-03T07:01:36;95727.50;;;7.08;23.83
49943;BME280;36011;53.362;58.948;2023-03-03T07:04:40;95731.16;;;5.88;24.37
49943;BME280;36011;53.362;58.948;2023-03-03T07:07:46;95740.91;;;5.30;25.23
49943;BME280;36011;53.362;58.948;2023-03-03T07:10:49;95747.28;;;5.53;25.53
49943;BME280;36011;53.362;58.948;2023-03-03T07:13:53;95743.66;;;5.82;24.87
49943;BME280;36011;53.362;58.948;2023-03-03T07:17:03;95751.28;;;6.00;24.83
49943;BME280;36011;53.362;58.948;2023-03-03T07:20:17;95748.03;;;6.23;24.33
49943;BME280;36011;53.362;58.948;2023-03-03T07:26:32;95749.25;;;5.35;24.89
49943;BME280;36011;53.362;58.948;2023-03-03T07:29:39;95743.97;;;5.22;24.83
49943;BME280;36011;53.362;58.948;2023-03-03T07:32:46;95762.03;;;4.82;25.02
49943;BME280;36011;53.362;58.948;2023-03-03T07:35:54;95757.31;;;4.44;25.51
49943;BME280;36011;53.362;58.948;2023-03-03T07:38:59;95738.72;;;4.36;24.91
49943;BME280;36011;53.362;58.948;2023-03-03T07:45:25;95775.41;;;4.01;24.93
49943;BME280;36011;53.362;58.948;2023-03-03T07:48:36;95782.84;;;3.77;25.50
49943;BME280;36011;53.362;58.948;2023-03-03T07:51:42;95782.84;;;3.46;25.79
49943;BME280;36011;53.362;58.948;2023-03-03T07:54:47;95782.22;;;3.25;25.94
49943;BME280;36011;53.362;58.948;2023-03-03T07:57:52;95791.16;;;3.03;26.43
49943;BME280;36011;53.362;58.948;2023-03-03T08:04:43;95788.34;;;3.87;25.77
49943;BME280;36011;53.362;58.948;2023-03-03T08:07:52;95801.41;;;4.78;25.02
49943;BME280;36011;53.362;58.948;2023-03-03T08:10:59;95794.88;;;4.70;24.97
49943;BME280;36011;53.362;58.948;2023-03-03T08:14:11;95791.13;;;4.30;25.41
49943;BME280;36011;53.362;58.948;2023-03-03T08:17:24;95789.13;;;3.57;25.71
49943;BME280;36011;53.362;58.948;2023-03-03T08:20:38;95788.63;;;2.51;26.99
49943;BME280;36011;53.362;58.948;2023-03-03T08:23:44;95783.44;;;1.44;28.62
49943;BME280;36011;53.362;58.948;2023-03-03T08:26:48;95792.13;;;1.05;29.47
49943;BME280;36011;53.362;58.948;2023-03-03T08:29:53;95789.88;;;1.16;29.17
49943;BME280;36011;53.362;58.948;2023-03-03T08:32:59;95785.94;;;0.88;29.59
49943;BME280;36011;53.362;58.948;2023-03-03T08:36:05;95791.13;;;0.48;30.32
49943;BME280;36011;53.362;58.948;2023-03-03T08:39:11;95783.09;;;0.13;30.77
49943;BME280;36011;53.362;58.948;2023-03-03T08:42:16;95777.97;;;0.11;30.80
49943;BME280;36011;53.362;58.948;2023-03-03T08:45:21;95772.91;;;-0.12;31.29
49943;BME280;36011;53.362;58.948;2023-03-03T08:48:27;95774.06;;;-0.19;31.83
49943;BME280;36011;53.362;58.948;2023-03-03T08:51:33;95777.50;;;0.24;31.53
49943;BME280;36011;53.362;58.948;2023-03-03T08:54:37;95775.59;;;0.48;31.20
49943;BME280;36011;53.362;58.948;2023-03-03T08:57:41;95764.59;;;0.63;30.59
49943;BME280;36011;53.362;58.948;2023-03-03T09:00:46;95777.28;;;0.08;31.40
49943;BME280;36011;53.362;58.948;2023-03-03T09:03:51;95771.66;;;-0.24;32.48
49943;BME280;36011;53.362;58.948;2023-03-03T09:06:57;95770.38;;;-0.56;32.30
49943;BME280;36011;53.362;58.948;2023-03-03T09:10:02;95776.28;;;-0.54;32.84
49943;BME280;36011;53.362;58.948;2023-03-03T09:13:13;95777.06;;;-0.52;32.79
49943;BME280;36011;53.362;58.948;2023-03-03T09:16:17;95771.72;;;-0.70;33.01
49943;BME280;36011;53.362;58.948;2023-03-03T09:19:26;95776.22;;;-0.75;33.35
49943;BME280;36011;53.362;58.948;2023-03-03T09:22:36;95772.34;;;-0.86;33.41
49943;BME280;36011;53.362;58.948;2023-03-03T09:25:41;95766.47;;;-0.68;33.21
49943;BME280;36011;53.362;58.948;2023-03-03T09:28:45;95774.19;;;-0.44;33.42
49943;BME280;36011;53.362;58.948;2023-03-03T09:32:30;95772.19;;;-0.60;33.48
49943;BME280;36011;53.362;58.948;2023-03-03T09:35:38;95779.63;;;-0.51;33.15
49943;BME280;36011;53.362;58.948;2023-03-03T09:38:45;95775.94;;;-0.67;33.76
49943;BME280;36011;53.362;58.948;2023-03-03T09:49:18;95796.63;;;-0.91;32.09
49943;BME280;36011;53.362;58.948;2023-03-03T09:52:49;95804.06;;;-0.83;32.57
49943;BME280;36011;53.362;58.948;2023-03-03T09:56:21;95792.44;;;-0.71;32.42
49943;BME280;36011;53.362;58.948;2023-03-03T09:59:54;95799.50;;;-0.53;31.54
49943;BME280;36011;53.362;58.948;2023-03-03T10:06:46;95798.56;;;-0.28;32.53
49943;BME280;36011;53.362;58.948;2023-03-03T10:30:45;95839.28;;;11.54;19.84
49943;BME280;36011;53.362;58.948;2023-03-03T10:37:33;95860.94;;;12.09;19.22
49943;BME280;36011;53.362;58.948;2023-03-03T10:41:12;95843.94;;;10.34;20.21
49943;BME280;36011;53.362;58.948;2023-03-03T10:44:59;95839.63;;;7.77;22.17
49943;BME280;36011;53.362;58.948;2023-03-03T11:01:48;95847.91;;;11.14;19.37
49943;BME280;36011;53.362;58.948;2023-03-03T11:05:00;95837.09;;;10.75;19.65
49943;BME280;36011;53.362;58.948;2023-03-03T11:08:16;95850.91;;;10.89;19.44
49943;BME280;36011;53.362;58.948;2023-03-03T11:14:57;95849.16;;;8.51;21.47
49943;BME280;36011;53.362;58.948;2023-03-03T11:18:14;95851.25;;;7.22;22.59
49943;BME280;36011;53.362;58.948;2023-03-03T11:31:26;95851.56;;;2.74;27.05
49943;BME280;36011;53.362;58.948;2023-03-03T11:34:58;95849.34;;;1.38;29.07
49943;BME280;36011;53.362;58.948;2023-03-03T11:38:18;95853.31;;;0.66;29.91
49943;BME280;36011;53.362;58.948;2023-03-03T11:44:48;95847.59;;;-0.05;30.72
49943;BME280;36011;53.362;58.948;2023-03-03T11:51:19;95864.19;;;-1.03;31.63
49943;BME280;36011;53.362;58.948;2023-03-03T11:54:52;95856.03;;;-1.41;31.93
49943;BME280;36011;53.362;58.948;2023-03-03T12:01:23;95845.91;;;-2.27;33.72
49943;BME280;36011;53.362;58.948;2023-03-03T12:04:36;95857.94;;;-2.54;35.08
49943;BME280;36011;53.362;58.948;2023-03-03T12:07:53;95861.50;;;-2.89;35.82
49943;BME280;36011;53.362;58.948;2023-03-03T12:14:29;95871.44;;;-3.06;36.52
49943;BME280;36011;53.362;58.948;2023-03-03T12:24:33;95870.38;;;-2.99;37.39
49943;BME280;36011;53.362;58.948;2023-03-03T12:27:53;95873.25;;;-2.79;36.91
49943;BME280;36011;53.362;58.948;2023-03-03T12:31:20;95871.38;;;-2.74;37.43
49943;BME280;36011;53.362;58.948;2023-03-03T12:34:33;95879.78;;;-2.98;37.94
49943;BME280;36011;53.362;58.948;2023-03-03T12:37:54;95879.25;;;-3.09;37.93
49943;BME280;36011;53.362;58.948;2023-03-03T12:41:17;95889.34;;;-3.03;38.78
49943;BME280;36011;53.362;58.948;2023-03-03T12:44:49;95885.63;;;-3.23;39.55
49943;BME280;36011;53.362;58.948;2023-03-03T12:48:00;95897.63;;;-3.57;40.20
49943;BME280;36011;53.362;58.948;2023-03-03T12:54:40;95902.34;;;-4.11;42.08
49943;BME280;36011;53.362;58.948;2023-03-03T12:58:10;95897.41;;;-4.20;43.29
49943;BME280;36011;53.362;58.948;2023-03-03T13:14:36;95912.38;;;-4.79;47.65
49943;BME280;36011;53.362;58.948;2023-03-03T13:24:25;95903.59;;;-5.09;49.41
49943;BME280;36011;53.362;58.948;2023-03-03T13:27:39;95907.91;;;-5.13;50.44
49943;BME280;36011;53.362;58.948;2023-03-03T13:30:48;95905.81;;;-5.37;50.81
49943;BME280;36011;53.362;58.948;2023-03-03T13:33:53;95914.75;;;-5.60;51.03
49943;BME280;36011;53.362;58.948;2023-03-03T13:37:04;95907.25;;;-5.72;51.61
49943;BME280;36011;53.362;58.948;2023-03-03T13:40:26;95913.38;;;-5.81;51.87
49943;BME280;36011;53.362;58.948;2023-03-03T13:43:44;95905.94;;;-5.95;52.04
49943;BME280;36011;53.362;58.948;2023-03-03T13:46:59;95910.44;;;-6.09;53.29
49943;BME280;36011;53.362;58.948;2023-03-03T13:56:42;95919.94;;;-6.14;52.04
49943;BME280;36011;53.362;58.948;2023-03-03T14:00:25;95923.53;;;-6.29;52.61
49943;BME280;36011;53.362;58.948;2023-03-03T14:06:40;95925.66;;;-6.60;52.98
49943;BME280;36011;53.362;58.948;2023-03-03T14:10:18;95941.09;;;-6.66;53.10
49943;BME280;36011;53.362;58.948;2023-03-03T14:17:16;95937.03;;;-6.81;53.41
49943;BME280;36011;53.362;58.948;2023-03-03T14:20:28;95944.78;;;-6.87;53.42
49943;BME280;36011;53.362;58.948;2023-03-03T14:23:42;95939.81;;;-7.01;53.86
49943;BME280;36011;53.362;58.948;2023-03-03T14:26:56;95943.19;;;-6.96;53.57
49943;BME280;36011;53.362;58.948;2023-03-03T14:29:58;95948.47;;;-7.13;54.05
49943;BME280;36011;53.362;58.948;2023-03-03T14:36:13;95941.75;;;-7.25;54.33
49943;BME280;36011;53.362;58.948;2023-03-03T14:42:38;95950.41;;;-7.35;54.95
49943;BME280;36011;53.362;58.948;2023-03-03T14:45:48;95956.47;;;-7.45;54.96
49943;BME280;36011;53.362;58.948;2023-03-03T14:49:02;95950.53;;;-7.50;55.16
49943;BME280;36011;53.362;58.948;2023-03-03T14:55:32;95957.69;;;-7.89;55.35
49943;BME280;36011;53.362;58.948;2023-03-03T14:58:39;95957.69;;;-7.86;55.80
49943;BME280;36011;53.362;58.948;2023-03-03T15:01:41;95956.75;;;-7.77;55.19
49943;BME280;36011;53.362;58.948;2023-03-03T15:04:49;95961.03;;;-7.81;55.53
49943;BME280;36011;53.362;58.948;2023-03-03T15:08:13;95952.41;;;-7.68;55.49
49943;BME280;36011;53.362;58.948;2023-03-03T15:17:40;95947.41;;;-7.80;57.39
49943;BME280;36011;53.362;58.948;2023-03-03T15:20:50;95951.59;;;-7.70;57.63
49943;BME280;36011;53.362;58.948;2023-03-03T15:24:07;95960.22;;;-7.86;58.97
49943;BME280;36011;53.362;58.948;2023-03-03T15:27:34;95949.06;;;-7.76;58.99
49943;BME280;36011;53.362;58.948;2023-03-03T15:30:47;95947.31;;;-7.71;60.36
49943;BME280;36011;53.362;58.948;2023-03-03T15:37:42;95950.88;;;-7.90;61.03
49943;BME280;36011;53.362;58.948;2023-03-03T15:41:11;95943.13;;;-7.79;60.82
49943;BME280;36011;53.362;58.948;2023-03-03T15:44:37;95945.66;;;-7.75;61.40
49943;BME280;36011;53.362;58.948;2023-03-03T15:51:57;95954.31;;;-7.91;61.57
49943;BME280;36011;53.362;58.948;2023-03-03T15:58:02;95953.56;;;-8.07;62.00
49943;BME280;36011;53.362;58.948;2023-03-03T16:01:28;95945.88;;;-8.02;61.32
49943;BME280;36011;53.362;58.948;2023-03-03T16:04:36;95938.38;;;-8.21;61.75
49943;BME280;36011;53.362;58.948;2023-03-03T16:08:00;95935.69;;;-8.05;61.41
49943;BME280;36011;53.362;58.948;2023-03-03T16:14:41;95948.41;;;-7.98;61.64
49943;BME280;36011;53.362;58.948;2023-03-03T16:31:38;95930.47;;;-7.92;62.20
49943;BME280;36011;53.362;58.948;2023-03-03T16:34:59;95944.16;;;-8.00;62.13
49943;BME280;36011;53.362;58.948;2023-03-03T16:38:11;95945.94;;;-8.11;62.64
49943;BME280;36011;53.362;58.948;2023-03-03T16:54:40;95944.09;;;-7.91;62.40
49943;BME280;36011;53.362;58.948;2023-03-03T17:01:49;95937.31;;;-7.95;62.89
49943;BME280;36011;53.362;58.948;2023-03-03T17:04:58;95947.50;;;-7.94;63.20
49943;BME280;36011;53.362;58.948;2023-03-03T17:22:22;95947.47;;;-7.86;63.46
49943;BME280;36011;53.362;58.948;2023-03-03T17:25:49;95950.91;;;-7.93;64.11
49943;BME280;36011;53.362;58.948;2023-03-03T17:39:18;95961.06;;;-7.87;64.66
49943;BME280;36011;53.362;58.948;2023-03-03T17:45:39;95945.00;;;-8.01;64.51
49943;BME280;36011;53.362;58.948;2023-03-03T17:52:28;95943.31;;;-8.02;64.37
49943;BME280;36011;53.362;58.948;2023-03-03T17:59:14;95956.97;;;-8.08;65.08
49943;BME280;36011;53.362;58.948;2023-03-03T18:12:56;95942.97;;;-8.76;65.96
49943;BME280;36011;53.362;58.948;2023-03-03T18:26:39;95936.25;;;-8.94;66.66
49943;BME280;36011;53.362;58.948;2023-03-03T18:33:10;95936.25;;;-9.04;67.13
49943;BME280;36011;53.362;58.948;2023-03-03T18:39:48;95938.00;;;-9.15;67.86
49943;BME280;36011;53.362;58.948;2023-03-03T18:42:50;95932.78;;;-8.84;67.64
49943;BME280;36011;53.362;58.948;2023-03-03T18:45:54;95929.44;;;-8.95;67.68
49943;BME280;36011;53.362;58.948;2023-03-03T18:49:05;95936.19;;;-8.85;67.53
49943;BME280;36011;53.362;58.948;2023-03-03T18:52:20;95912.38;;;-8.84;67.93
49943;BME280;36011;53.362;58.948;2023-03-03T18:55:25;95925.94;;;-8.76;67.64
49943;BME280;36011;53.362;58.948;2023-03-03T19:01:33;95922.50;;;-8.63;67.64
49943;BME280;36011;53.362;58.948;2023-03-03T19:04:43;95924.22;;;-8.68;68.04
49943;BME280;36011;53.362;58.948;2023-03-03T19:11:00;95927.56;;;-8.60;67.43
49943;BME280;36011;53.362;58.948;2023-03-03T19:23:51;95924.97;;;-8.55;67.62
49943;BME280;36011;53.362;58.948;2023-03-03T19:27:29;95913.88;;;-8.49;67.69
49943;BME280;36011;53.362;58.948;2023-03-03T19:33:51;95914.63;;;-8.38;67.88
49943;BME280;36011;53.362;58.948;2023-03-03T19:37:02;95908.81;;;-8.46;68.30
49943;BME280;36011;53.362;58.948;2023-03-03T19:40:21;95925.81;;;-8.48;68.22
49943;BME280;36011;53.362;58.948;2023-03-03T19:47:09;95919.59;;;-8.18;68.81
49943;BME280;36011;53.362;58.948;2023-03-03T19:50:22;95916.97;;;-8.07;68.26
49943;BME280;36011;53.362;58.948;2023-03-03T19:57:02;95929.75;;;-8.06;68.45
49943;BME280;36011;53.362;58.948;2023-03-03T20:16:45;95914.03;;;-7.61;68.61
49943;BME280;36011;53.362;58.948;2023-03-03T20:20:13;95916.41;;;-7.43;68.54
49943;BME280;36011;53.362;58.948;2023-03-03T20:23:58;95912.00;;;-7.29;67.74
49943;BME280;36011;53.362;58.948;2023-03-03T20:27:17;95920.47;;;-7.25;67.74
49943;BME280;36011;53.362;58.948;2023-03-03T20:34:05;95911.00;;;-7.17;67.49
49943;BME280;36011;53.362;58.948;2023-03-03T20:37:14;95914.38;;;-7.13;68.39
49943;BME280;36011;53.362;58.948;2023-03-03T20:44:14;95917.66;;;-7.02;67.53
49943;BME280;36011;53.362;58.948;2023-03-03T20:58:06;95928.81;;;-7.06;68.89
49943;BME280;36011;53.362;58.948;2023-03-03T21:01:35;95936.59;;;-7.17;68.46
49943;BME280;36011;53.362;58.948;2023-03-03T21:04:42;95936.41;;;-7.00;68.65
49943;BME280;36011;53.362;58.948;2023-03-03T21:07:58;95929.56;;;-6.98;68.18
49943;BME280;36011;53.362;58.948;2023-03-03T21:11:05;95942.34;;;-7.00;68.60
49943;BME280;36011;53.362;58.948;2023-03-03T21:14:36;95934.63;;;-6.95;69.50
49943;BME280;36011;53.362;58.948;2023-03-03T21:17:37;95942.94;;;-6.78;69.35
49943;BME280;36011;53.362;58.948;2023-03-03T21:20:41;95946.19;;;-6.62;70.33
49943;BME280;36011;53.362;58.948;2023-03-03T21:23:44;95951.19;;;-6.54;70.87
49943;BME280;36011;53.362;58.948;2023-03-03T21:26:55;95939.81;;;-6.33;71.10
49943;BME280;36011;53.362;58.948;2023-03-03T21:30:11;95934.56;;;-6.22;71.16
49943;BME280;36011;53.362;58.948;2023-03-03T21:36:43;95936.13;;;-6.15;71.46
49943;BME280;36011;53.362;58.948;2023-03-03T21:40:18;95942.16;;;-6.16;71.38
49943;BME280;36011;53.362;58.948;2023-03-03T21:43:56;95937.22;;;-6.32;71.75
49943;BME280;36011;53.362;58.948;2023-03-03T21:46:57;95935.59;;;-6.36;71.73
49943;BME280;36011;53.362;58.948;2023-03-03T21:49:58;95935.53;;;-6.33;71.51
49943;BME280;36011;53.362;58.948;2023-03-03T21:53:00;95938.84;;;-6.26;71.65
49943;BME280;36011;53.362;58.948;2023-03-03T21:56:01;95947.34;;;-6.22;71.39